Latest Weather Observations for Wyndham Airport

IDD60801

Issued at 6:31 pm CST Saturday 13 February 2016 (issued every 30 minutes, with the page automatically refreshed every 10 minutes)

About weather observations | Map of weather stations | Latest weather observations for NT | Other Formats
Station Details ID: 001006 Name: WYNDHAM AERO Lat: -15.51 Lon: 128.15 Height: 3.8 m
Data from the previous 72 hours. | See also: Recent months at Wyndham Airport
Date/Time
CST
Temp
°C
App
Temp
°C
Dew
Point
Rel
Hum
%
Delta-T
°C
Wind Press
QNH
hPa
Press
MSL
hPa
Rain
since 9 am
mm
Dir
 
Spd
km/h
Gust
km/h
Spd
kts
Gust
kts
13/06:30pm 36.7 36.4 19.2 36 11.6 N 19 22 10 12 1005.9 1005.9 0.0
13/06:00pm 37.8 38.4 18.7 32 12.6 N 13 17 7 9 1005.6 1005.6 0.0
13/05:30pm 38.5 39.2 18.9 32 13.0 N 13 17 7 9 1005.6 1005.6 0.0
13/05:00pm 37.5 36.3 18.5 32 12.5 NNE 22 33 12 18 1005.6 1005.6 0.0
13/04:30pm 39.8 39.6 18.4 28 14.2 NE 17 26 9 14 1005.6 1005.6 0.0
13/04:00pm 40.0 40.2 18.6 29 14.2 NNE 15 20 8 11 1005.6 1005.6 0.0
13/03:30pm 38.9 38.2 18.2 30 13.7 N 19 26 10 14 1005.7 1005.7 0.0
13/03:00pm 38.8 39.4 18.6 30 13.4 WNW 13 20 7 11 1006.0 1006.0 0.0
13/02:30pm 38.9 39.5 18.7 30 13.4 WNW 13 20 7 11 1006.4 1006.4 0.0
13/02:00pm 39.0 40.5 19.8 32 12.9 NW 11 20 6 11 1006.7 1006.7 0.0
13/01:30pm 38.9 40.0 19.7 32 12.9 W 13 33 7 18 1007.1 1007.1 0.0
13/01:00pm 38.4 40.0 20.7 36 12.0 SW 13 22 7 12 1007.7 1007.7 0.0
13/12:30pm 38.1 40.6 21.7 38 11.3 W 11 17 6 9 1008.2 1008.2 0.0
13/12:00pm 36.9 39.1 21.1 40 10.7 WSW 11 17 6 9 1008.5 1008.5 0.0
13/11:30am 36.0 39.9 22.9 46 9.1 WSW 7 13 4 7 1008.9 1008.9 0.0
13/11:00am 35.3 39.0 23.3 50 8.3 W 9 15 5 8 1009.2 1009.2 0.0
13/10:30am 33.9 37.8 23.6 55 7.2 WSW 9 13 5 7 1009.6 1009.6 0.6
13/10:00am 32.7 36.4 23.3 57 6.5 WSW 9 13 5 7 1009.9 1009.9 0.6
13/09:30am 32.5 36.3 23.4 58 6.3 W 9 13 5 7 1009.9 1009.9 0.6
13/09:00am 31.4 35.8 23.8 64 5.3 WSW 7 11 4 6 1009.9 1009.9 0.6
13/08:30am 30.4 35.0 24.1 69 4.4 SSW 7 9 4 5 1009.6 1009.6 0.6
13/08:00am 29.8 34.6 24.2 72 3.9 WSW 6 7 3 4 1009.4 1009.4 0.6
13/07:30am 29.3 33.8 24.0 73 3.7 WSW 7 9 4 5 1009.0 1009.0 0.6
13/07:00am 28.9 32.9 23.8 74 3.5 SW 9 11 5 6 1008.7 1008.7 0.6
13/06:30am 29.0 32.0 23.4 72 3.9 SW 13 17 7 9 1008.3 1008.3 0.6
13/06:00am 29.1 33.2 23.3 71 4.0 WSW 7 11 4 6 1008.0 1008.0 0.6
13/05:30am 29.2 33.6 23.4 71 4.0 WSW 6 7 3 4 1007.8 1007.8 0.6
13/05:00am 29.4 33.4 23.1 69 4.3 WNW 7 9 4 5 1007.6 1007.6 0.6
13/04:30am 29.3 33.6 23.7 72 3.9 WNW 7 7 4 4 1007.7 1007.7 0.6
13/04:00am 29.0 33.2 24.1 75 3.4 WNW 9 11 5 6 1007.5 1007.5 0.6
13/03:30am 29.1 33.3 23.5 72 3.9 W 7 13 4 7 1007.5 1007.5 0.6
13/03:00am 29.4 35.0 23.6 71 4.0 CALM 0 0 0 0 1007.5 1007.5 0.6
13/02:30am 29.5 35.3 23.9 72 3.9 CALM 0 0 0 0 1007.6 1007.6 0.6
13/02:00am 29.6 35.3 23.8 71 4.0 CALM 0 0 0 0 1007.8 1007.8 0.6
13/01:30am 29.7 35.5 23.9 71 4.0 CALM 0 0 0 0 1008.2 1008.2 0.6
13/01:00am 29.5 35.2 23.7 71 4.0 CALM 0 0 0 0 1008.5 1008.5 0.6
13/12:30am 29.8 35.6 24.0 71 4.0 CALM 0 0 0 0 1008.9 1008.9 0.6
13/12:00am 29.7 35.2 24.1 72 3.9 NNW 2 6 1 3 1009.0 1009.0 0.6
 
Date/Time
CST
Temp
°C
App
Temp
°C
Dew
Point
Rel
Hum
%
Delta-T
°C
Wind Press
QNH
hPa
Press
MSL
hPa
Rain
since 9 am
mm
Dir
 
Spd
km/h
Gust
km/h
Spd
kts
Gust
kts
12/11:30pm 29.7 34.1 23.4 69 4.3 NW 6 7 3 4 1009.0 1009.0 0.6
12/11:00pm 29.3 33.6 23.7 72 3.9 NNW 7 9 4 5 1008.8 1008.8 0.6
12/10:30pm 29.5 33.5 23.7 71 4.0 NW 9 11 5 6 1008.9 1008.9 0.6
12/10:00pm 29.3 33.3 23.7 72 3.9 WNW 9 9 5 5 1008.9 1008.9 0.6
12/09:30pm 29.4 32.5 23.6 71 4.0 SSW 13 17 7 9 1008.5 1008.5 0.6
12/09:00pm 29.9 31.5 22.9 66 4.8 SSW 19 26 10 14 1008.3 1008.3 0.6
12/08:30pm 30.6 31.5 22.7 62 5.4 SE 22 32 12 17 1007.9 1007.9 0.6
12/08:00pm 30.5 31.5 22.9 64 5.2 N 22 35 12 19 1007.1 1007.1 0.6
12/07:30pm 29.8 29.2 22.0 63 5.3 N 28 41 15 22 1006.7 1006.7 0.6
12/07:00pm 29.2 30.6 23.6 72 3.9 NNW 22 30 12 16 1006.7 1006.7 0.6
12/06:30pm 29.3 28.8 22.8 68 4.4 N 30 39 16 21 1006.1 1006.1 0.6
12/06:00pm 29.5 30.4 23.4 69 4.2 N 24 30 13 16 1005.6 1005.6 0.6
12/05:30pm 28.4 29.1 22.9 72 3.8 N 24 35 13 19 1005.1 1005.1 0.6
12/05:08pm 28.5 26.4 21.0 64 5.0 N 33 54 18 29 1005.2 1005.2 0.2
12/05:00pm 31.7 30.1 20.0 50 7.7 N 28 39 15 21 1004.8 1004.8 0.0
12/04:30pm 33.2 32.6 20.4 47 8.6 NE 24 44 13 24 1004.7 1004.7 0.0
12/04:10pm 37.4 36.0 17.9 31 12.7 NE 22 52 12 28 1004.4 1004.4 0.0
12/04:00pm 40.4 39.2 18.3 27 14.6 NE 22 32 12 17 1004.2 1004.2 0.0
12/03:42pm 38.8 36.3 18.1 29 13.6 ENE 28 46 15 25 1004.4 1004.4 0.0
12/03:30pm 40.5 40.0 19.0 28 14.4 NE 20 33 11 18 1004.5 1004.5 0.0
12/03:00pm 39.8 38.0 17.8 27 14.4 NE 24 35 13 19 1005.0 1005.0 0.0
12/02:30pm 39.3 38.3 18.0 29 14.0 ENE 20 32 11 17 1005.5 1005.5 0.0
12/02:00pm 39.1 39.5 18.9 31 13.4 ESE 15 26 8 14 1005.8 1005.8 0.0
12/01:30pm 38.7 38.3 18.0 29 13.6 E 17 28 9 15 1006.3 1006.3 0.0
12/01:00pm 39.0 39.3 18.8 30 13.4 E 15 26 8 14 1006.7 1006.7 0.0
12/12:30pm 38.6 39.2 19.4 32 12.8 SE 15 26 8 14 1006.9 1006.9 0.0
12/12:00pm 37.7 39.8 20.1 36 11.8 ENE 9 20 5 11 1007.5 1007.5 0.0
12/11:30am 37.2 39.3 20.1 37 11.5 SE 9 15 5 8 1008.0 1008.0 0.0
12/11:00am 36.2 41.1 22.4 45 9.5 CALM 0 0 0 0 1008.3 1008.3 0.0
12/10:30am 34.9 39.7 22.2 47 8.7 CALM 0 0 0 0 1008.5 1008.5 0.6
12/10:00am 33.3 38.4 22.7 53 7.3 CALM 0 0 0 0 1008.7 1008.7 0.6
12/09:30am 32.6 36.7 23.0 57 6.6 S 6 9 3 5 1008.7 1008.7 0.6
12/09:00am 31.6 34.9 22.6 59 6.2 WSW 9 11 5 6 1008.5 1008.5 0.6
12/08:30am 30.8 35.2 23.5 65 5.0 WNW 6 7 3 4 1008.3 1008.3 0.6
12/08:00am 29.4 34.7 23.1 69 4.3 CALM 0 0 0 0 1008.3 1008.3 0.6
12/07:30am 27.5 31.1 23.1 77 3.0 ENE 9 9 5 5 1008.2 1008.2 0.6
12/07:00am 26.8 29.4 22.6 78 2.8 ESE 13 15 7 8 1008.1 1008.1 0.6
12/06:30am 26.7 28.4 22.3 77 3.0 ESE 17 19 9 10 1007.8 1007.8 0.6
12/06:00am 26.9 28.6 22.3 76 3.1 ESE 17 20 9 11 1007.3 1007.3 0.6
12/05:30am 27.3 29.5 21.8 72 3.7 E 13 15 7 8 1006.9 1006.9 0.6
12/05:00am 27.7 32.3 21.7 70 4.0 CALM 0 0 0 0 1006.6 1006.6 0.6
12/04:30am 27.5 31.7 21.8 71 3.8 NNE 2 7 1 4 1006.5 1006.5 0.6
12/04:00am 28.6 31.3 21.4 65 4.8 W 9 11 5 6 1006.7 1006.7 0.6
12/03:30am 28.3 31.1 20.8 63 5.0 SW 7 13 4 7 1006.9 1006.9 0.6
12/03:00am 28.2 29.9 21.0 65 4.8 NW 13 15 7 8 1006.6 1006.6 0.6
12/02:30am 27.1 26.9 21.2 70 3.9 NNW 24 30 13 16 1006.6 1006.6 0.6
12/02:00am 28.6 28.7 20.3 60 5.5 E 20 28 11 15 1008.3 1008.3 0.0
12/01:30am 30.1 30.5 19.8 54 6.8 ENE 17 20 9 11 1007.9 1007.9 0.0
12/01:00am 30.6 31.7 19.6 51 7.2 SE 13 15 7 8 1007.8 1007.8 0.0
12/12:30am 30.4 31.4 19.4 51 7.2 E 13 17 7 9 1007.8 1007.8 0.0
12/12:00am 30.6 33.4 19.6 51 7.2 SE 4 13 2 7 1007.5 1007.5 0.0
 
Date/Time
CST
Temp
°C
App
Temp
°C
Dew
Point
Rel
Hum
%
Delta-T
°C
Wind Press
QNH
hPa
Press
MSL
hPa
Rain
since 9 am
mm
Dir
 
Spd
km/h
Gust
km/h
Spd
kts
Gust
kts
11/11:30pm 32.1 35.4 19.0 45 8.6 CALM 0 0 0 0 1007.4 1007.4 0.0
11/11:00pm 32.3 34.6 19.5 46 8.4 WSW 6 9 3 5 1007.1 1007.1 0.0
11/10:30pm 32.4 34.1 18.6 44 9.0 SSE 7 15 4 8 1006.6 1006.6 0.0
11/10:00pm 31.7 32.9 19.0 47 8.3 N 11 20 6 11 1006.1 1006.1 0.0
11/09:30pm 32.8 32.0 17.0 38 10.1 E 17 54 9 29 1007.0 1007.0 0.0
11/09:29pm 33.1 33.9 18.1 41 9.7 E 11 54 6 29 1007.0 1007.0 0.0
11/09:00pm 33.7 35.5 17.4 37 10.5 SSE 4 9 2 5 1005.9 1005.9 0.0
11/08:30pm 34.0 34.2 17.7 38 10.5 NNW 13 20 7 11 1005.5 1005.5 0.0
11/08:00pm 34.0 35.3 19.3 42 9.7 NNW 11 17 6 9 1004.7 1004.7 0.0
11/07:30pm 35.1 35.1 18.2 36 11.0 NW 15 20 8 11 1004.3 1004.3 0.0
11/07:00pm 35.5 34.6 17.7 35 11.5 N 19 26 10 14 1003.9 1003.9 0.0
11/06:30pm 35.5 33.8 17.2 33 11.8 N 22 32 12 17 1003.6 1003.6 0.0
11/06:00pm 37.6 35.4 14.8 25 14.3 E 20 30 11 16 1003.3 1003.3 0.0
11/05:30pm 42.2 37.2 8.1 13 19.8 SE 24 33 13 18 1002.7 1002.7 0.0
11/05:00pm 41.6 37.7 10.7 16 18.5 SE 22 35 12 19 1002.6 1002.6 0.0
11/04:36pm 41.8 38.5 11.7 17 18.3 SE 20 41 11 22 1002.0 1002.0 0.0
11/04:30pm 41.6 38.6 12.5 18 18.0 SE 20 33 11 18 1002.0 1002.0 0.0
11/04:00pm 41.5 38.6 14.0 20 17.3 SSE 22 32 12 17 1002.7 1002.7 0.0
11/03:30pm 41.6 38.6 14.8 20 17.1 ESE 24 37 13 20 1003.0 1003.0 0.0
11/03:00pm 40.8 40.4 16.2 23 15.9 ESE 13 20 7 11 1003.4 1003.4 0.0
11/02:30pm 40.3 40.6 18.8 28 14.4 ESE 15 26 8 14 1003.9 1003.9 0.0
11/02:00pm 40.3 42.5 20.4 31 13.5 NNE 9 15 5 8 1004.4 1004.4 0.0
11/01:30pm 38.6 40.7 21.7 37 11.6 SSE 13 24 7 13 1004.8 1004.8 0.0
11/01:00pm 38.5 40.6 22.5 39 11.1 SE 15 24 8 13 1005.5 1005.5 0.0
11/12:30pm 37.1 38.4 21.6 40 10.6 SE 17 22 9 12 1005.8 1005.8 0.0
11/12:00pm 36.5 39.1 22.6 44 9.6 E 13 20 7 11 1006.2 1006.2 0.0
11/11:30am 36.3 39.8 22.8 45 9.4 ESE 9 17 5 9 1006.5 1006.5 0.0
11/11:00am 35.5 39.1 23.1 48 8.6 E 9 17 5 9 1007.0 1007.0 0.0
11/10:30am 34.0 37.0 22.7 51 7.8 E 11 17 6 9 1007.2 1007.2 0.0
11/10:00am 33.8 37.3 23.5 55 7.2 E 11 19 6 10 1007.4 1007.4 0.0
11/09:30am 33.2 37.0 23.5 56 6.7 NE 9 17 5 9 1007.5 1007.5 0.0
11/09:00am 32.4 36.8 23.4 59 6.2 NE 6 11 3 6 1007.2 1007.2 0.0
11/08:30am 31.3 35.1 23.4 63 5.5 SE 9 13 5 7 1007.0 1007.0 0.0
11/08:00am 30.6 35.2 23.8 67 4.7 E 6 7 3 4 1006.6 1006.6 0.0
11/07:30am 29.1 33.5 23.8 73 3.7 E 7 11 4 6 1006.4 1006.4 0.0
11/07:00am 27.5 31.5 22.7 75 3.3 ENE 6 7 3 4 1006.0 1006.0 0.0
11/06:30am 27.7 30.7 22.6 74 3.5 ESE 11 11 6 6 1006.0 1006.0 0.0
11/06:00am 28.1 31.2 22.8 73 3.6 ENE 11 13 6 7 1005.8 1005.8 0.0
11/05:30am 28.6 31.2 23.3 73 3.6 ESE 15 20 8 11 1005.7 1005.7 0.0
11/05:00am 28.8 31.3 23.2 71 3.8 ESE 15 17 8 9 1005.4 1005.4 0.0
11/04:30am 29.4 31.7 23.4 70 4.1 SE 17 20 9 11 1005.3 1005.3 0.0
11/04:00am 29.7 34.3 22.4 65 5.0 NW 2 11 1 6 1005.1 1005.1 0.0
11/03:30am 30.7 35.0 23.6 66 4.9 NW 7 9 4 5 1004.9 1004.9 0.0
11/03:00am 31.0 35.5 23.6 64 5.1 N 6 7 3 4 1005.2 1005.2 0.0
11/02:30am 31.2 35.7 23.6 64 5.3 NNW 6 9 3 5 1005.4 1005.4 0.0
11/02:00am 31.9 36.1 23.2 60 6.0 N 6 11 3 6 1005.5 1005.5 0.0
11/01:30am 32.4 35.4 23.4 59 6.2 NNW 13 17 7 9 1005.7 1005.7 0.0
11/01:00am 32.4 36.0 23.1 58 6.4 N 9 15 5 8 1005.9 1005.9 0.0
11/12:30am 32.7 34.8 23.1 57 6.6 NNW 17 26 9 14 1006.0 1006.0 0.0
11/12:00am 32.9 35.4 22.4 54 7.2 NW 13 20 7 11 1006.3 1006.3 0.0
 
Date/Time
CST
Temp
°C
App
Temp
°C
Dew
Point
Rel
Hum
%
Delta-T
°C
Wind Press
QNH
hPa
Press
MSL
hPa
Rain
since 9 am
mm
Dir
 
Spd
km/h
Gust
km/h
Spd
kts
Gust
kts
10/11:30pm 33.1 36.6 22.2 52 7.5 ENE 7 19 4 10 1006.5 1006.5 0.0
10/11:00pm 32.9 33.7 22.4 54 7.2 N 22 32 12 17 1006.3 1006.3 0.0
10/10:30pm 32.7 33.1 22.5 55 7.0 N 24 30 13 16 1005.9 1005.9 0.0
10/10:00pm 33.0 33.6 22.1 52 7.4 NNE 22 33 12 18 1005.7 1005.7 0.0
10/09:30pm 33.5 34.2 21.6 49 8.1 NE 20 28 11 15 1005.5 1005.5 0.0
10/09:00pm 33.6 33.7 21.1 48 8.4 NE 22 37 12 20 1005.1 1005.1 0.0
10/08:47pm 34.0 35.6 20.0 43 9.3 N 11 46 6 25 1004.8 1004.8 0.0
10/08:30pm 36.9 36.8 15.9 28 13.4 SSE 11 15 6 8 1004.2 1004.2 0.0

Other Formats:

Comma delimited format used in spreadsheet applications
http://www.bom.gov.au/fwo/IDD60801/IDD60801.95214.axf

JavaScript Object Notation format (JSON) in row-major order
http://www.bom.gov.au/fwo/IDD60801/IDD60801.95214.json